sensor_id;sensor_type;location;lat;lon;timestamp;P1;durP1;ratioP1;P2;durP2;ratioP2
29550;SDS011;16488;52.396;10.696;2022-09-21T00:00:35;5.25;;;3.63;;
29550;SDS011;16488;52.396;10.696;2022-09-21T00:03:01;7.22;;;4.18;;
29550;SDS011;16488;52.396;10.696;2022-09-21T00:05:27;6.97;;;4.20;;
29550;SDS011;16488;52.396;10.696;2022-09-21T00:07:53;8.93;;;4.97;;
29550;SDS011;16488;52.396;10.696;2022-09-21T00:10:19;8.10;;;4.60;;
29550;SDS011;16488;52.396;10.696;2022-09-21T00:12:46;6.32;;;4.60;;
29550;SDS011;16488;52.396;10.696;2022-09-21T00:15:13;8.40;;;4.97;;
29550;SDS011;16488;52.396;10.696;2022-09-21T00:17:41;6.57;;;4.68;;
29550;SDS011;16488;52.396;10.696;2022-09-21T00:20:07;6.85;;;4.40;;
29550;SDS011;16488;52.396;10.696;2022-09-21T00:22:33;10.23;;;4.65;;
29550;SDS011;16488;52.396;10.696;2022-09-21T00:27:27;7.03;;;3.95;;
29550;SDS011;16488;52.396;10.696;2022-09-21T00:29:54;5.68;;;4.22;;
29550;SDS011;16488;52.396;10.696;2022-09-21T00:32:20;9.20;;;4.57;;
29550;SDS011;16488;52.396;10.696;2022-09-21T00:34:48;6.25;;;4.68;;
29550;SDS011;16488;52.396;10.696;2022-09-21T00:37:14;9.00;;;5.10;;
29550;SDS011;16488;52.396;10.696;2022-09-21T00:39:39;8.10;;;4.80;;
29550;SDS011;16488;52.396;10.696;2022-09-21T00:42:18;10.00;;;4.80;;
29550;SDS011;16488;52.396;10.696;2022-09-21T00:44:45;8.20;;;5.40;;
29550;SDS011;16488;52.396;10.696;2022-09-21T00:47:11;7.30;;;4.80;;
29550;SDS011;16488;52.396;10.696;2022-09-21T00:49:40;6.32;;;4.95;;
29550;SDS011;16488;52.396;10.696;2022-09-21T00:52:08;7.07;;;4.97;;
29550;SDS011;16488;52.396;10.696;2022-09-21T00:54:49;9.82;;;5.68;;
29550;SDS011;16488;52.396;10.696;2022-09-21T00:57:18;7.97;;;5.93;;
29550;SDS011;16488;52.396;10.696;2022-09-21T00:59:46;11.27;;;5.85;;
29550;SDS011;16488;52.396;10.696;2022-09-21T01:02:14;9.30;;;4.93;;
29550;SDS011;16488;52.396;10.696;2022-09-21T01:04:41;8.35;;;5.22;;
29550;SDS011;16488;52.396;10.696;2022-09-21T01:07:09;8.95;;;5.13;;
29550;SDS011;16488;52.396;10.696;2022-09-21T01:09:38;13.88;;;5.80;;
29550;SDS011;16488;52.396;10.696;2022-09-21T01:12:13;11.27;;;5.70;;
29550;SDS011;16488;52.396;10.696;2022-09-21T01:23:45;7.53;;;5.53;;
29550;SDS011;16488;52.396;10.696;2022-09-21T01:31:55;9.48;;;5.53;;
29550;SDS011;16488;52.396;10.696;2022-09-21T01:34:31;7.10;;;4.80;;
29550;SDS011;16488;52.396;10.696;2022-09-21T01:37:09;11.23;;;5.22;;
29550;SDS011;16488;52.396;10.696;2022-09-21T01:39:37;7.65;;;5.00;;
29550;SDS011;16488;52.396;10.696;2022-09-21T01:42:07;5.20;;;4.55;;
29550;SDS011;16488;52.396;10.696;2022-09-21T01:44:33;10.30;;;5.80;;
29550;SDS011;16488;52.396;10.696;2022-09-21T01:47:02;8.23;;;4.93;;
29550;SDS011;16488;52.396;10.696;2022-09-21T01:49:36;7.80;;;4.93;;
29550;SDS011;16488;52.396;10.696;2022-09-21T01:52:10;17.60;;;6.07;;
29550;SDS011;16488;52.396;10.696;2022-09-21T01:54:42;9.93;;;5.07;;
29550;SDS011;16488;52.396;10.696;2022-09-21T01:57:26;6.88;;;5.05;;
29550;SDS011;16488;52.396;10.696;2022-09-21T02:00:00;10.02;;;6.20;;
29550;SDS011;16488;52.396;10.696;2022-09-21T02:02:31;8.30;;;5.20;;
29550;SDS011;16488;52.396;10.696;2022-09-21T02:05:00;12.25;;;7.43;;
29550;SDS011;16488;52.396;10.696;2022-09-21T02:07:26;7.38;;;5.30;;
29550;SDS011;16488;52.396;10.696;2022-09-21T02:09:52;11.10;;;6.97;;
29550;SDS011;16488;52.396;10.696;2022-09-21T02:12:20;7.75;;;5.78;;
29550;SDS011;16488;52.396;10.696;2022-09-21T02:14:46;9.07;;;6.03;;
29550;SDS011;16488;52.396;10.696;2022-09-21T02:17:17;7.88;;;5.72;;
29550;SDS011;16488;52.396;10.696;2022-09-21T02:20:18;8.48;;;5.63;;
29550;SDS011;16488;52.396;10.696;2022-09-21T02:22:55;11.50;;;6.90;;
29550;SDS011;16488;52.396;10.696;2022-09-21T02:33:55;17.17;;;8.23;;
29550;SDS011;16488;52.396;10.696;2022-09-21T02:36:29;11.98;;;7.32;;
29550;SDS011;16488;52.396;10.696;2022-09-21T02:39:08;10.30;;;6.38;;
29550;SDS011;16488;52.396;10.696;2022-09-21T02:41:41;9.02;;;7.00;;
29550;SDS011;16488;52.396;10.696;2022-09-21T02:44:23;13.60;;;7.30;;
29550;SDS011;16488;52.396;10.696;2022-09-21T02:47:03;11.00;;;6.57;;
29550;SDS011;16488;52.396;10.696;2022-09-21T02:49:39;12.02;;;6.45;;
29550;SDS011;16488;52.396;10.696;2022-09-21T02:52:13;9.68;;;6.53;;
29550;SDS011;16488;52.396;10.696;2022-09-21T02:54:41;12.07;;;6.65;;
29550;SDS011;16488;52.396;10.696;2022-09-21T02:57:10;8.93;;;6.28;;
29550;SDS011;16488;52.396;10.696;2022-09-21T02:59:38;8.48;;;6.53;;
29550;SDS011;16488;52.396;10.696;2022-09-21T03:02:04;14.55;;;6.45;;
29550;SDS011;16488;52.396;10.696;2022-09-21T03:04:30;22.77;;;8.65;;
29550;SDS011;16488;52.396;10.696;2022-09-21T03:06:57;38.92;;;9.45;;
29550;SDS011;16488;52.396;10.696;2022-09-21T03:09:23;33.17;;;9.88;;
29550;SDS011;16488;52.396;10.696;2022-09-21T03:11:49;68.50;;;12.52;;
29550;SDS011;16488;52.396;10.696;2022-09-21T03:14:15;65.95;;;12.07;;
29550;SDS011;16488;52.396;10.696;2022-09-21T03:16:42;92.05;;;12.85;;
29550;SDS011;16488;52.396;10.696;2022-09-21T03:19:08;134.70;;;18.17;;
29550;SDS011;16488;52.396;10.696;2022-09-21T03:21:34;52.55;;;13.45;;
29550;SDS011;16488;52.396;10.696;2022-09-21T03:24:00;34.55;;;12.23;;
29550;SDS011;16488;52.396;10.696;2022-09-21T03:26:26;40.63;;;12.48;;
29550;SDS011;16488;52.396;10.696;2022-09-21T03:28:51;30.67;;;13.23;;
29550;SDS011;16488;52.396;10.696;2022-09-21T03:31:20;32.92;;;12.02;;
29550;SDS011;16488;52.396;10.696;2022-09-21T03:33:46;28.65;;;12.98;;
29550;SDS011;16488;52.396;10.696;2022-09-21T03:36:12;22.60;;;12.38;;
29550;SDS011;16488;52.396;10.696;2022-09-21T03:38:38;26.85;;;13.43;;
29550;SDS011;16488;52.396;10.696;2022-09-21T03:41:03;27.90;;;12.93;;
29550;SDS011;16488;52.396;10.696;2022-09-21T03:43:29;28.48;;;11.50;;
29550;SDS011;16488;52.396;10.696;2022-09-21T03:45:55;22.52;;;11.77;;
29550;SDS011;16488;52.396;10.696;2022-09-21T03:48:21;24.00;;;11.77;;
29550;SDS011;16488;52.396;10.696;2022-09-21T03:50:47;18.35;;;10.93;;
29550;SDS011;16488;52.396;10.696;2022-09-21T03:53:13;21.63;;;10.23;;
29550;SDS011;16488;52.396;10.696;2022-09-21T03:55:39;23.25;;;11.25;;
29550;SDS011;16488;52.396;10.696;2022-09-21T03:58:05;21.70;;;10.43;;
29550;SDS011;16488;52.396;10.696;2022-09-21T04:00:31;17.23;;;9.68;;
29550;SDS011;16488;52.396;10.696;2022-09-21T04:02:57;21.02;;;10.73;;
29550;SDS011;16488;52.396;10.696;2022-09-21T04:05:23;19.10;;;9.82;;
29550;SDS011;16488;52.396;10.696;2022-09-21T04:10:16;22.70;;;10.75;;
29550;SDS011;16488;52.396;10.696;2022-09-21T04:12:44;16.45;;;9.55;;
29550;SDS011;16488;52.396;10.696;2022-09-21T04:15:11;24.45;;;11.25;;
29550;SDS011;16488;52.396;10.696;2022-09-21T04:17:43;22.98;;;10.40;;
29550;SDS011;16488;52.396;10.696;2022-09-21T04:20:09;22.35;;;10.32;;
29550;SDS011;16488;52.396;10.696;2022-09-21T04:22:35;18.50;;;9.05;;
29550;SDS011;16488;52.396;10.696;2022-09-21T04:25:02;26.50;;;10.02;;
29550;SDS011;16488;52.396;10.696;2022-09-21T04:27:29;47.45;;;11.27;;
29550;SDS011;16488;52.396;10.696;2022-09-21T04:29:55;58.25;;;12.07;;
29550;SDS011;16488;52.396;10.696;2022-09-21T04:32:21;43.53;;;13.98;;
29550;SDS011;16488;52.396;10.696;2022-09-21T04:34:46;49.92;;;14.05;;
29550;SDS011;16488;52.396;10.696;2022-09-21T04:37:12;97.57;;;16.05;;
29550;SDS011;16488;52.396;10.696;2022-09-21T04:39:37;51.75;;;14.02;;
29550;SDS011;16488;52.396;10.696;2022-09-21T04:42:03;61.35;;;13.73;;
29550;SDS011;16488;52.396;10.696;2022-09-21T04:44:29;28.13;;;13.77;;
29550;SDS011;16488;52.396;10.696;2022-09-21T04:46:55;56.88;;;14.75;;
29550;SDS011;16488;52.396;10.696;2022-09-21T04:49:21;90.72;;;16.75;;
29550;SDS011;16488;52.396;10.696;2022-09-21T04:51:47;58.92;;;15.93;;
29550;SDS011;16488;52.396;10.696;2022-09-21T04:54:13;38.45;;;16.58;;
29550;SDS011;16488;52.396;10.696;2022-09-21T04:56:39;26.33;;;13.63;;
29550;SDS011;16488;52.396;10.696;2022-09-21T04:59:04;56.08;;;18.45;;
29550;SDS011;16488;52.396;10.696;2022-09-21T05:01:30;118.55;;;21.63;;
29550;SDS011;16488;52.396;10.696;2022-09-21T05:03:56;79.00;;;17.98;;
29550;SDS011;16488;52.396;10.696;2022-09-21T05:06:29;44.50;;;16.70;;
29550;SDS011;16488;52.396;10.696;2022-09-21T05:08:57;100.97;;;21.02;;
29550;SDS011;16488;52.396;10.696;2022-09-21T05:11:41;202.80;;;22.65;;
29550;SDS011;16488;52.396;10.696;2022-09-21T05:14:07;208.60;;;22.92;;
29550;SDS011;16488;52.396;10.696;2022-09-21T05:16:33;150.23;;;22.35;;
29550;SDS011;16488;52.396;10.696;2022-09-21T05:18:59;144.50;;;21.95;;
29550;SDS011;16488;52.396;10.696;2022-09-21T05:21:24;67.80;;;20.75;;
29550;SDS011;16488;52.396;10.696;2022-09-21T05:23:51;35.15;;;15.57;;
29550;SDS011;16488;52.396;10.696;2022-09-21T05:26:16;30.70;;;14.80;;
29550;SDS011;16488;52.396;10.696;2022-09-21T05:28:43;29.60;;;15.98;;
29550;SDS011;16488;52.396;10.696;2022-09-21T05:34:16;22.65;;;12.38;;
29550;SDS011;16488;52.396;10.696;2022-09-21T05:39:17;20.77;;;12.98;;
29550;SDS011;16488;52.396;10.696;2022-09-21T05:41:43;27.27;;;14.80;;
29550;SDS011;16488;52.396;10.696;2022-09-21T05:44:11;29.65;;;13.35;;
29550;SDS011;16488;52.396;10.696;2022-09-21T05:46:44;28.90;;;13.35;;
29550;SDS011;16488;52.396;10.696;2022-09-21T05:52:33;109.35;;;22.98;;
29550;SDS011;16488;52.396;10.696;2022-09-21T05:55:24;112.38;;;23.70;;
29550;SDS011;16488;52.396;10.696;2022-09-21T06:00:36;135.05;;;38.17;;
29550;SDS011;16488;52.396;10.696;2022-09-21T06:05:53;56.00;;;22.65;;
29550;SDS011;16488;52.396;10.696;2022-09-21T06:08:18;55.50;;;25.95;;
29550;SDS011;16488;52.396;10.696;2022-09-21T06:10:44;59.38;;;26.73;;
29550;SDS011;16488;52.396;10.696;2022-09-21T06:13:10;62.30;;;26.85;;
29550;SDS011;16488;52.396;10.696;2022-09-21T06:15:44;55.25;;;25.73;;
29550;SDS011;16488;52.396;10.696;2022-09-21T06:18:45;52.53;;;22.35;;
29550;SDS011;16488;52.396;10.696;2022-09-21T06:21:10;43.30;;;21.05;;
29550;SDS011;16488;52.396;10.696;2022-09-21T06:23:36;46.33;;;22.80;;
29550;SDS011;16488;52.396;10.696;2022-09-21T06:26:02;44.20;;;21.25;;
29550;SDS011;16488;52.396;10.696;2022-09-21T06:28:27;43.58;;;20.88;;
29550;SDS011;16488;52.396;10.696;2022-09-21T06:30:54;46.25;;;20.95;;
29550;SDS011;16488;52.396;10.696;2022-09-21T06:33:20;40.60;;;21.17;;
29550;SDS011;16488;52.396;10.696;2022-09-21T06:35:59;44.55;;;23.52;;
29550;SDS011;16488;52.396;10.696;2022-09-21T06:38:25;43.13;;;23.20;;
29550;SDS011;16488;52.396;10.696;2022-09-21T06:40:53;44.10;;;23.15;;
29550;SDS011;16488;52.396;10.696;2022-09-21T06:43:19;43.60;;;21.40;;
29550;SDS011;16488;52.396;10.696;2022-09-21T06:48:43;46.97;;;24.42;;
29550;SDS011;16488;52.396;10.696;2022-09-21T06:51:08;45.97;;;22.57;;
29550;SDS011;16488;52.396;10.696;2022-09-21T06:53:34;43.28;;;22.90;;
29550;SDS011;16488;52.396;10.696;2022-09-21T06:56:00;52.78;;;23.70;;
29550;SDS011;16488;52.396;10.696;2022-09-21T06:58:30;54.03;;;26.75;;
29550;SDS011;16488;52.396;10.696;2022-09-21T07:01:02;70.60;;;32.85;;
29550;SDS011;16488;52.396;10.696;2022-09-21T07:03:30;74.75;;;35.47;;
29550;SDS011;16488;52.396;10.696;2022-09-21T07:05:56;77.80;;;36.03;;
29550;SDS011;16488;52.396;10.696;2022-09-21T07:08:24;72.88;;;33.70;;
29550;SDS011;16488;52.396;10.696;2022-09-21T07:10:51;67.25;;;33.90;;
29550;SDS011;16488;52.396;10.696;2022-09-21T07:13:20;62.00;;;34.17;;
29550;SDS011;16488;52.396;10.696;2022-09-21T07:15:46;62.38;;;32.10;;
29550;SDS011;16488;52.396;10.696;2022-09-21T07:18:12;55.97;;;31.23;;
29550;SDS011;16488;52.396;10.696;2022-09-21T07:23:11;57.50;;;32.08;;
29550;SDS011;16488;52.396;10.696;2022-09-21T07:25:39;65.45;;;31.08;;
29550;SDS011;16488;52.396;10.696;2022-09-21T07:28:10;56.00;;;32.38;;
29550;SDS011;16488;52.396;10.696;2022-09-21T07:30:37;59.47;;;32.05;;
29550;SDS011;16488;52.396;10.696;2022-09-21T07:33:08;55.28;;;30.90;;
29550;SDS011;16488;52.396;10.696;2022-09-21T07:35:33;57.55;;;29.35;;
29550;SDS011;16488;52.396;10.696;2022-09-21T07:38:00;62.67;;;31.90;;
29550;SDS011;16488;52.396;10.696;2022-09-21T07:40:27;47.92;;;29.08;;
29550;SDS011;16488;52.396;10.696;2022-09-21T07:45:22;52.40;;;27.55;;
29550;SDS011;16488;52.396;10.696;2022-09-21T07:47:49;41.58;;;25.33;;
29550;SDS011;16488;52.396;10.696;2022-09-21T07:50:14;47.75;;;27.60;;
29550;SDS011;16488;52.396;10.696;2022-09-21T07:52:40;50.47;;;28.83;;
29550;SDS011;16488;52.396;10.696;2022-09-21T07:55:06;52.53;;;28.53;;
29550;SDS011;16488;52.396;10.696;2022-09-21T07:57:32;53.13;;;28.40;;
29550;SDS011;16488;52.396;10.696;2022-09-21T08:00:16;48.00;;;26.50;;
29550;SDS011;16488;52.396;10.696;2022-09-21T08:02:42;49.30;;;25.88;;
29550;SDS011;16488;52.396;10.696;2022-09-21T08:05:07;43.83;;;26.17;;
29550;SDS011;16488;52.396;10.696;2022-09-21T08:07:33;42.53;;;25.02;;
29550;SDS011;16488;52.396;10.696;2022-09-21T08:09:59;42.95;;;24.98;;
29550;SDS011;16488;52.396;10.696;2022-09-21T08:12:24;43.90;;;23.30;;
29550;SDS011;16488;52.396;10.696;2022-09-21T08:14:50;42.75;;;24.15;;
29550;SDS011;16488;52.396;10.696;2022-09-21T08:17:15;34.67;;;21.80;;
29550;SDS011;16488;52.396;10.696;2022-09-21T08:19:41;40.75;;;21.20;;
29550;SDS011;16488;52.396;10.696;2022-09-21T08:22:07;35.13;;;20.83;;
29550;SDS011;16488;52.396;10.696;2022-09-21T08:24:32;37.03;;;20.58;;
29550;SDS011;16488;52.396;10.696;2022-09-21T08:26:59;37.45;;;22.15;;
29550;SDS011;16488;52.396;10.696;2022-09-21T08:29:25;39.60;;;20.65;;
29550;SDS011;16488;52.396;10.696;2022-09-21T08:31:51;39.13;;;20.85;;
29550;SDS011;16488;52.396;10.696;2022-09-21T08:34:17;41.72;;;20.67;;
29550;SDS011;16488;52.396;10.696;2022-09-21T08:36:43;37.17;;;22.92;;
29550;SDS011;16488;52.396;10.696;2022-09-21T08:39:10;37.83;;;21.27;;
29550;SDS011;16488;52.396;10.696;2022-09-21T08:44:14;28.73;;;17.88;;
29550;SDS011;16488;52.396;10.696;2022-09-21T08:46:45;31.27;;;18.75;;
29550;SDS011;16488;52.396;10.696;2022-09-21T08:49:19;37.97;;;17.67;;
29550;SDS011;16488;52.396;10.696;2022-09-21T08:51:50;23.90;;;15.23;;
29550;SDS011;16488;52.396;10.696;2022-09-21T08:54:42;23.88;;;12.75;;
29550;SDS011;16488;52.396;10.696;2022-09-21T08:57:13;20.30;;;8.95;;
29550;SDS011;16488;52.396;10.696;2022-09-21T08:59:40;20.63;;;11.38;;
29550;SDS011;16488;52.396;10.696;2022-09-21T09:04:50;23.98;;;12.98;;
29550;SDS011;16488;52.396;10.696;2022-09-21T09:13:14;16.83;;;8.68;;
29550;SDS011;16488;52.396;10.696;2022-09-21T09:16:14;19.65;;;9.93;;
29550;SDS011;16488;52.396;10.696;2022-09-21T09:18:49;16.58;;;7.53;;
29550;SDS011;16488;52.396;10.696;2022-09-21T09:21:33;21.30;;;8.52;;
29550;SDS011;16488;52.396;10.696;2022-09-21T09:26:42;21.88;;;9.00;;
29550;SDS011;16488;52.396;10.696;2022-09-21T09:29:13;16.30;;;8.52;;
29550;SDS011;16488;52.396;10.696;2022-09-21T09:31:53;16.33;;;7.00;;
29550;SDS011;16488;52.396;10.696;2022-09-21T09:34:29;9.75;;;6.40;;
29550;SDS011;16488;52.396;10.696;2022-09-21T09:37:12;9.98;;;7.13;;
29550;SDS011;16488;52.396;10.696;2022-09-21T09:39:40;11.82;;;7.10;;
29550;SDS011;16488;52.396;10.696;2022-09-21T09:44:54;17.92;;;7.65;;
29550;SDS011;16488;52.396;10.696;2022-09-21T09:47:49;12.70;;;6.20;;
29550;SDS011;16488;52.396;10.696;2022-09-21T09:50:26;9.63;;;6.35;;
29550;SDS011;16488;52.396;10.696;2022-09-21T09:53:04;14.18;;;6.35;;
29550;SDS011;16488;52.396;10.696;2022-09-21T09:55:40;13.05;;;5.00;;
29550;SDS011;16488;52.396;10.696;2022-09-21T10:01:03;14.07;;;5.82;;
29550;SDS011;16488;52.396;10.696;2022-09-21T10:03:29;8.00;;;4.28;;
29550;SDS011;16488;52.396;10.696;2022-09-21T10:05:55;13.77;;;5.65;;
29550;SDS011;16488;52.396;10.696;2022-09-21T10:11:11;7.18;;;4.20;;
29550;SDS011;16488;52.396;10.696;2022-09-21T10:13:40;8.75;;;3.85;;
29550;SDS011;16488;52.396;10.696;2022-09-21T10:16:12;12.88;;;3.45;;
29550;SDS011;16488;52.396;10.696;2022-09-21T10:21:17;3.88;;;2.15;;
29550;SDS011;16488;52.396;10.696;2022-09-21T10:23:47;5.67;;;1.63;;
29550;SDS011;16488;52.396;10.696;2022-09-21T10:26:17;4.82;;;2.40;;
29550;SDS011;16488;52.396;10.696;2022-09-21T10:28:53;7.82;;;2.00;;
29550;SDS011;16488;52.396;10.696;2022-09-21T10:31:24;7.07;;;2.20;;
29550;SDS011;16488;52.396;10.696;2022-09-21T10:33:52;5.38;;;2.15;;
29550;SDS011;16488;52.396;10.696;2022-09-21T10:36:33;11.52;;;2.63;;
29550;SDS011;16488;52.396;10.696;2022-09-21T10:39:16;7.38;;;2.40;;
29550;SDS011;16488;52.396;10.696;2022-09-21T10:41:57;7.28;;;1.50;;
29550;SDS011;16488;52.396;10.696;2022-09-21T10:44:41;2.65;;;1.63;;
29550;SDS011;16488;52.396;10.696;2022-09-21T10:47:18;4.57;;;1.50;;
29550;SDS011;16488;52.396;10.696;2022-09-21T10:49:56;4.50;;;1.60;;
29550;SDS011;16488;52.396;10.696;2022-09-21T10:52:24;4.10;;;1.88;;
29550;SDS011;16488;52.396;10.696;2022-09-21T10:55:03;4.53;;;1.25;;
29550;SDS011;16488;52.396;10.696;2022-09-21T10:57:30;5.75;;;1.45;;
29550;SDS011;16488;52.396;10.696;2022-09-21T10:59:57;1.98;;;1.20;;
29550;SDS011;16488;52.396;10.696;2022-09-21T11:02:36;3.88;;;1.30;;
29550;SDS011;16488;52.396;10.696;2022-09-21T11:05:08;7.65;;;1.67;;
29550;SDS011;16488;52.396;10.696;2022-09-21T11:07:38;5.72;;;1.30;;
29550;SDS011;16488;52.396;10.696;2022-09-21T11:12:51;2.25;;;1.20;;
29550;SDS011;16488;52.396;10.696;2022-09-21T11:18:09;9.23;;;2.17;;
29550;SDS011;16488;52.396;10.696;2022-09-21T11:20:51;4.55;;;1.88;;
29550;SDS011;16488;52.396;10.696;2022-09-21T11:23:42;10.57;;;1.90;;
29550;SDS011;16488;52.396;10.696;2022-09-21T11:26:33;5.47;;;1.50;;
29550;SDS011;16488;52.396;10.696;2022-09-21T11:31:50;2.80;;;0.93;;
29550;SDS011;16488;52.396;10.696;2022-09-21T11:34:55;3.22;;;0.90;;
29550;SDS011;16488;52.396;10.696;2022-09-21T11:48:58;5.05;;;1.17;;
29550;SDS011;16488;52.396;10.696;2022-09-21T11:54:36;5.88;;;1.63;;
29550;SDS011;16488;52.396;10.696;2022-09-21T12:08:02;3.92;;;1.23;;
29550;SDS011;16488;52.396;10.696;2022-09-21T12:13:25;5.00;;;2.10;;
29550;SDS011;16488;52.396;10.696;2022-09-21T12:16:23;6.28;;;1.58;;
29550;SDS011;16488;52.396;10.696;2022-09-21T12:19:17;3.88;;;1.20;;
29550;SDS011;16488;52.396;10.696;2022-09-21T12:22:26;5.35;;;1.40;;
29550;SDS011;16488;52.396;10.696;2022-09-21T12:24:58;7.35;;;1.27;;
29550;SDS011;16488;52.396;10.696;2022-09-21T12:30:25;9.38;;;1.17;;
29550;SDS011;16488;52.396;10.696;2022-09-21T12:33:08;10.57;;;1.92;;
29550;SDS011;16488;52.396;10.696;2022-09-21T12:35:49;5.78;;;1.35;;
29550;SDS011;16488;52.396;10.696;2022-09-21T12:38:40;6.80;;;1.00;;
29550;SDS011;16488;52.396;10.696;2022-09-21T12:41:36;1.70;;;0.52;;
29550;SDS011;16488;52.396;10.696;2022-09-21T12:47:16;1.10;;;0.40;;
29550;SDS011;16488;52.396;10.696;2022-09-21T12:49:52;1.37;;;0.50;;
29550;SDS011;16488;52.396;10.696;2022-09-21T12:52:27;1.55;;;0.60;;
29550;SDS011;16488;52.396;10.696;2022-09-21T12:57:49;1.27;;;0.60;;
29550;SDS011;16488;52.396;10.696;2022-09-21T13:00:22;5.38;;;1.35;;
29550;SDS011;16488;52.396;10.696;2022-09-21T13:06:00;6.93;;;1.42;;
29550;SDS011;16488;52.396;10.696;2022-09-21T13:08:24;3.75;;;0.98;;
29550;SDS011;16488;52.396;10.696;2022-09-21T13:10:55;4.53;;;1.23;;
29550;SDS011;16488;52.396;10.696;2022-09-21T13:15:57;6.60;;;1.05;;
29550;SDS011;16488;52.396;10.696;2022-09-21T13:18:39;7.82;;;1.20;;
29550;SDS011;16488;52.396;10.696;2022-09-21T13:23:50;5.05;;;1.35;;
29550;SDS011;16488;52.396;10.696;2022-09-21T13:34:45;4.15;;;0.70;;
29550;SDS011;16488;52.396;10.696;2022-09-21T13:44:59;6.60;;;1.00;;
29550;SDS011;16488;52.396;10.696;2022-09-21T13:47:42;3.53;;;0.60;;
29550;SDS011;16488;52.396;10.696;2022-09-21T13:50:28;1.40;;;0.60;;
29550;SDS011;16488;52.396;10.696;2022-09-21T13:53:18;7.68;;;1.27;;
29550;SDS011;16488;52.396;10.696;2022-09-21T13:55:51;2.30;;;0.73;;
29550;SDS011;16488;52.396;10.696;2022-09-21T13:58:26;5.53;;;0.80;;
29550;SDS011;16488;52.396;10.696;2022-09-21T14:01:01;3.58;;;0.93;;
29550;SDS011;16488;52.396;10.696;2022-09-21T14:06:33;0.85;;;0.50;;
29550;SDS011;16488;52.396;10.696;2022-09-21T14:09:07;5.32;;;1.00;;
29550;SDS011;16488;52.396;10.696;2022-09-21T14:12:08;2.58;;;0.70;;
29550;SDS011;16488;52.396;10.696;2022-09-21T14:14:42;5.15;;;0.80;;
29550;SDS011;16488;52.396;10.696;2022-09-21T14:20:32;3.95;;;0.80;;
29550;SDS011;16488;52.396;10.696;2022-09-21T14:25:48;4.22;;;1.15;;
29550;SDS011;16488;52.396;10.696;2022-09-21T14:28:25;3.95;;;1.15;;
29550;SDS011;16488;52.396;10.696;2022-09-21T14:30:59;1.45;;;0.80;;
29550;SDS011;16488;52.396;10.696;2022-09-21T14:33:59;2.33;;;0.98;;
29550;SDS011;16488;52.396;10.696;2022-09-21T14:36:31;4.15;;;0.80;;
29550;SDS011;16488;52.396;10.696;2022-09-21T14:39:03;4.65;;;0.70;;
29550;SDS011;16488;52.396;10.696;2022-09-21T14:41:35;3.45;;;1.20;;
29550;SDS011;16488;52.396;10.696;2022-09-21T14:44:03;7.05;;;1.02;;
29550;SDS011;16488;52.396;10.696;2022-09-21T14:46:44;4.90;;;1.92;;
29550;SDS011;16488;52.396;10.696;2022-09-21T14:49:43;1.35;;;0.70;;
29550;SDS011;16488;52.396;10.696;2022-09-21T14:58:16;5.63;;;1.25;;
29550;SDS011;16488;52.396;10.696;2022-09-21T15:00:57;1.45;;;0.60;;
29550;SDS011;16488;52.396;10.696;2022-09-21T15:18:43;2.03;;;0.93;;
29550;SDS011;16488;52.396;10.696;2022-09-21T15:21:29;8.45;;;1.65;;
29550;SDS011;16488;52.396;10.696;2022-09-21T15:23:56;2.38;;;1.10;;
29550;SDS011;16488;52.396;10.696;2022-09-21T15:28:54;2.60;;;1.00;;
29550;SDS011;16488;52.396;10.696;2022-09-21T15:31:22;6.90;;;1.15;;
29550;SDS011;16488;52.396;10.696;2022-09-21T15:36:19;3.78;;;0.80;;
29550;SDS011;16488;52.396;10.696;2022-09-21T15:38:47;2.28;;;1.00;;
29550;SDS011;16488;52.396;10.696;2022-09-21T15:43:58;1.88;;;0.70;;
29550;SDS011;16488;52.396;10.696;2022-09-21T15:46:36;4.85;;;0.70;;
29550;SDS011;16488;52.396;10.696;2022-09-21T15:49:01;5.90;;;0.90;;
29550;SDS011;16488;52.396;10.696;2022-09-21T15:51:29;2.28;;;1.17;;
29550;SDS011;16488;52.396;10.696;2022-09-21T15:59:15;1.85;;;0.90;;
29550;SDS011;16488;52.396;10.696;2022-09-21T16:01:46;3.38;;;1.10;;
29550;SDS011;16488;52.396;10.696;2022-09-21T16:04:15;3.33;;;0.75;;
29550;SDS011;16488;52.396;10.696;2022-09-21T16:06:47;2.42;;;0.80;;
29550;SDS011;16488;52.396;10.696;2022-09-21T16:11:55;3.35;;;1.10;;
29550;SDS011;16488;52.396;10.696;2022-09-21T16:14:20;2.22;;;1.27;;
29550;SDS011;16488;52.396;10.696;2022-09-21T16:19:40;3.58;;;0.88;;
29550;SDS011;16488;52.396;10.696;2022-09-21T16:22:10;4.50;;;0.82;;
29550;SDS011;16488;52.396;10.696;2022-09-21T16:24:45;6.25;;;1.00;;
29550;SDS011;16488;52.396;10.696;2022-09-21T16:27:17;2.45;;;0.90;;
29550;SDS011;16488;52.396;10.696;2022-09-21T16:29:45;7.47;;;1.23;;
29550;SDS011;16488;52.396;10.696;2022-09-21T16:34:48;4.82;;;1.30;;
29550;SDS011;16488;52.396;10.696;2022-09-21T16:39:44;5.35;;;1.02;;
29550;SDS011;16488;52.396;10.696;2022-09-21T16:42:10;4.30;;;1.13;;
29550;SDS011;16488;52.396;10.696;2022-09-21T16:44:37;4.68;;;1.20;;
29550;SDS011;16488;52.396;10.696;2022-09-21T16:47:18;3.15;;;0.80;;
29550;SDS011;16488;52.396;10.696;2022-09-21T16:49:49;7.15;;;1.58;;
29550;SDS011;16488;52.396;10.696;2022-09-21T16:52:19;1.80;;;0.73;;
29550;SDS011;16488;52.396;10.696;2022-09-21T16:54:45;3.58;;;0.80;;
29550;SDS011;16488;52.396;10.696;2022-09-21T16:57:13;3.80;;;1.05;;
29550;SDS011;16488;52.396;10.696;2022-09-21T16:59:38;4.18;;;1.17;;
29550;SDS011;16488;52.396;10.696;2022-09-21T17:02:04;1.83;;;0.80;;
29550;SDS011;16488;52.396;10.696;2022-09-21T17:04:31;3.75;;;1.55;;
29550;SDS011;16488;52.396;10.696;2022-09-21T17:06:58;5.78;;;1.33;;
29550;SDS011;16488;52.396;10.696;2022-09-21T17:12:05;3.88;;;1.27;;
29550;SDS011;16488;52.396;10.696;2022-09-21T17:14:33;4.72;;;1.20;;
29550;SDS011;16488;52.396;10.696;2022-09-21T17:17:00;5.18;;;1.23;;
29550;SDS011;16488;52.396;10.696;2022-09-21T17:19:32;3.88;;;1.33;;
29550;SDS011;16488;52.396;10.696;2022-09-21T17:21:59;2.83;;;1.33;;
29550;SDS011;16488;52.396;10.696;2022-09-21T17:24:27;2.05;;;1.02;;
29550;SDS011;16488;52.396;10.696;2022-09-21T17:26:53;8.25;;;1.20;;
29550;SDS011;16488;52.396;10.696;2022-09-21T17:29:20;1.83;;;1.00;;
29550;SDS011;16488;52.396;10.696;2022-09-21T17:31:48;2.40;;;0.98;;
29550;SDS011;16488;52.396;10.696;2022-09-21T17:34:19;3.70;;;1.30;;
29550;SDS011;16488;52.396;10.696;2022-09-21T17:36:46;3.35;;;1.02;;
29550;SDS011;16488;52.396;10.696;2022-09-21T17:39:12;3.65;;;1.42;;
29550;SDS011;16488;52.396;10.696;2022-09-21T17:46:59;4.13;;;1.90;;
29550;SDS011;16488;52.396;10.696;2022-09-21T17:49:36;6.97;;;2.38;;
29550;SDS011;16488;52.396;10.696;2022-09-21T17:52:02;5.00;;;2.13;;
29550;SDS011;16488;52.396;10.696;2022-09-21T17:54:46;5.85;;;2.53;;
29550;SDS011;16488;52.396;10.696;2022-09-21T17:57:19;4.13;;;2.20;;
29550;SDS011;16488;52.396;10.696;2022-09-21T18:00:01;8.48;;;1.83;;
29550;SDS011;16488;52.396;10.696;2022-09-21T18:02:47;2.75;;;1.83;;
29550;SDS011;16488;52.396;10.696;2022-09-21T18:05:17;3.85;;;2.78;;
29550;SDS011;16488;52.396;10.696;2022-09-21T18:07:49;7.95;;;1.92;;
29550;SDS011;16488;52.396;10.696;2022-09-21T18:15:17;4.20;;;1.13;;
29550;SDS011;16488;52.396;10.696;2022-09-21T18:18:06;2.75;;;1.20;;